Time;durP1;ratioP1;P1;durP2;ratioP2;P2;SDS_P1;SDS_P2;PMS_P1;PMS_P2;Temp;Humidity;BMP_temperature;BMP_pressure;BME280_temperature;BME280_humidity;BME280_pressure;Samples;Min_cycle;Max_cycle;Signal;HPM_P1;HPM_P2
2023/10/29 00:00:21;;;;;;;3.25;1.00;;;11.90;99.90;;;;;;7345681;32;20147;-55
2023/10/29 00:04:23;;;;;;;2.47;1.10;;;12.00;99.90;;;;;;7349736;32;20119;-55
2023/10/29 00:08:25;;;;;;;3.00;0.98;;;12.00;99.90;;;;;;7345761;32;20304;-55
2023/10/29 00:12:27;;;;;;;4.12;1.00;;;12.00;99.90;;;;;;7348759;32;20144;-55
2023/10/29 00:16:29;;;;;;;3.17;0.98;;;12.10;99.90;;;;;;7340737;32;20569;-55
2023/10/29 00:20:30;;;;;;;2.80;0.90;;;12.10;99.90;;;;;;7343817;32;21090;-55
2023/10/29 00:24:32;;;;;;;6.37;1.10;;;12.10;99.90;;;;;;7354713;32;20182;-55
2023/10/29 00:28:34;;;;;;;2.87;0.98;;;12.10;99.90;;;;;;7351924;32;20594;-55
2023/10/29 00:32:36;;;;;;;5.10;1.75;;;12.10;99.90;;;;;;7344879;32;20175;-55
2023/10/29 00:36:38;;;;;;;2.60;0.90;;;12.20;99.90;;;;;;7343475;32;20142;-55
2023/10/29 00:40:39;;;;;;;2.58;0.90;;;12.20;99.90;;;;;;7349598;32;20516;-55
2023/10/29 00:44:41;;;;;;;1.62;0.88;;;12.20;99.90;;;;;;7350472;32;20128;-55
2023/10/29 00:48:44;;;;;;;2.50;1.05;;;12.20;99.90;;;;;;7347572;32;20683;-55
2023/10/29 00:52:46;;;;;;;1.98;0.90;;;12.30;99.90;;;;;;7347403;32;20487;-55
2023/10/29 00:56:48;;;;;;;2.42;1.20;;;12.30;99.90;;;;;;7350353;32;20206;-55
2023/10/29 01:00:50;;;;;;;3.75;1.10;;;12.30;99.90;;;;;;7347196;32;20228;-56
2023/10/29 01:04:52;;;;;;;2.35;1.10;;;12.30;99.90;;;;;;7344349;32;20107;-55
2023/10/29 01:08:54;;;;;;;8.43;1.30;;;12.30;99.90;;;;;;7345371;32;20513;-55
2023/10/29 01:12:56;;;;;;;2.47;1.08;;;12.20;99.90;;;;;;7348586;32;20133;-55
2023/10/29 01:16:58;;;;;;;3.83;1.00;;;12.20;99.90;;;;;;7346023;32;20531;-55
2023/10/29 01:21:00;;;;;;;4.57;1.05;;;12.20;99.90;;;;;;7345738;32;20237;-56
2023/10/29 01:25:07;;;;;;;3.37;0.90;;;12.20;99.90;;;;;;7341781;32;20340;-55
2023/10/29 01:29:08;;;;;;;4.57;1.20;;;12.10;99.90;;;;;;7350783;32;20667;-55
2023/10/29 01:33:10;;;;;;;4.95;1.20;;;12.10;99.90;;;;;;7343551;32;20107;-56
2023/10/29 01:37:12;;;;;;;2.00;0.90;;;12.20;99.90;;;;;;7345545;32;20528;-55
2023/10/29 01:41:14;;;;;;;3.05;1.02;;;12.30;99.90;;;;;;7343345;32;20501;-55
2023/10/29 01:45:17;;;;;;;3.15;0.80;;;12.30;99.90;;;;;;7347382;32;20176;-55
2023/10/29 01:49:18;;;;;;;2.97;0.80;;;12.30;99.90;;;;;;7351312;32;20268;-55
2023/10/29 01:53:20;;;;;;;3.28;1.05;;;12.40;99.90;;;;;;7355213;32;22286;-55
2023/10/29 01:57:22;;;;;;;3.58;1.23;;;12.40;99.90;;;;;;7346339;32;20512;-55
2023/10/29 02:01:24;;;;;;;2.05;0.88;;;12.30;99.90;;;;;;7345634;32;20477;-54
2023/10/29 02:05:26;;;;;;;2.85;0.90;;;12.30;99.90;;;;;;7350870;32;20489;-55
2023/10/29 02:09:28;;;;;;;2.78;0.85;;;12.40;99.90;;;;;;7345245;32;20775;-55
2023/10/29 02:13:30;;;;;;;1.87;0.80;;;12.30;99.90;;;;;;7348606;32;20096;-55
2023/10/29 02:17:32;;;;;;;2.53;0.93;;;12.30;99.90;;;;;;7353015;32;20099;-56
2023/10/29 02:21:34;;;;;;;5.15;0.90;;;12.30;99.90;;;;;;7354774;32;21399;-56
2023/10/29 02:25:36;;;;;;;3.12;0.80;;;12.40;99.90;;;;;;7355699;32;20226;-56
2023/10/29 02:29:40;;;;;;;4.87;0.90;;;12.30;99.90;;;;;;7354124;32;20234;-55
2023/10/29 02:33:43;;;;;;;4.05;0.93;;;12.30;99.90;;;;;;7347794;32;20107;-56
2023/10/29 02:37:45;;;;;;;1.62;1.10;;;12.30;99.90;;;;;;7346133;32;20192;-54
2023/10/29 02:41:47;;;;;;;1.90;0.80;;;12.30;99.90;;;;;;7358164;32;20141;-55
2023/10/29 02:45:49;;;;;;;2.58;0.70;;;12.30;99.90;;;;;;7347404;32;20490;-56
2023/10/29 02:49:50;;;;;;;3.25;1.00;;;12.30;99.90;;;;;;7346126;32;20138;-55
2023/10/29 02:53:52;;;;;;;2.00;0.57;;;12.20;99.90;;;;;;7347150;32;20524;-56
2023/10/29 02:57:54;;;;;;;2.87;0.70;;;12.30;99.90;;;;;;7347754;32;20325;-55
2023/10/29 03:01:56;;;;;;;1.87;0.70;;;12.40;99.90;;;;;;7343509;32;20107;-55
2023/10/29 03:05:58;;;;;;;4.78;0.90;;;12.40;99.90;;;;;;7350283;32;20158;-57
2023/10/29 03:10:00;;;;;;;7.03;1.00;;;12.40;99.90;;;;;;7351429;32;20528;-55
2023/10/29 03:14:02;;;;;;;3.92;0.90;;;12.40;99.90;;;;;;7349107;32;20103;-56
2023/10/29 03:18:04;;;;;;;2.87;0.98;;;12.40;99.90;;;;;;7353255;32;20206;-55
2023/10/29 03:22:06;;;;;;;4.15;0.98;;;12.50;99.90;;;;;;7339300;32;20107;-56
2023/10/29 03:26:08;;;;;;;2.33;0.60;;;12.40;99.90;;;;;;7348541;32;20108;-55
2023/10/29 03:30:10;;;;;;;3.42;0.80;;;12.40;99.90;;;;;;7346452;32;20143;-55
2023/10/29 03:34:12;;;;;;;1.35;0.73;;;12.40;99.90;;;;;;7350590;32;20103;-55
2023/10/29 03:38:14;;;;;;;2.10;0.68;;;12.40;99.90;;;;;;7351364;32;20134;-55
2023/10/29 03:42:16;;;;;;;3.22;0.70;;;12.50;99.90;;;;;;7355326;32;20122;-55
2023/10/29 03:46:17;;;;;;;3.47;0.55;;;12.50;99.90;;;;;;7352606;32;20204;-55
2023/10/29 03:50:20;;;;;;;2.92;0.70;;;12.50;99.90;;;;;;7355234;32;20142;-55
2023/10/29 03:54:21;;;;;;;2.85;0.88;;;12.50;99.90;;;;;;7354069;32;20485;-55
2023/10/29 03:58:23;;;;;;;2.53;0.68;;;12.50;99.90;;;;;;7349073;32;20226;-55
2023/10/29 04:02:25;;;;;;;2.58;0.70;;;12.60;99.90;;;;;;7346454;32;20112;-56
2023/10/29 04:06:27;;;;;;;1.10;0.45;;;12.60;99.90;;;;;;7347760;32;20247;-55
2023/10/29 04:10:28;;;;;;;1.83;0.82;;;12.70;99.90;;;;;;7342639;32;20127;-54
2023/10/29 04:14:30;;;;;;;1.90;0.70;;;12.70;99.90;;;;;;7342684;32;20775;-55
2023/10/29 04:18:33;;;;;;;1.95;0.73;;;12.80;99.90;;;;;;7340411;32;20107;-55
2023/10/29 04:22:36;;;;;;;2.20;0.52;;;12.80;99.90;;;;;;7347651;32;20318;-55
2023/10/29 04:26:38;;;;;;;1.48;0.40;;;12.90;99.90;;;;;;7351104;32;20175;-56
2023/10/29 04:30:40;;;;;;;1.37;0.60;;;12.80;99.90;;;;;;7347580;32;20475;-56
2023/10/29 04:34:42;;;;;;;1.25;0.62;;;12.80;99.90;;;;;;7349884;32;20377;-56
2023/10/29 04:38:44;;;;;;;1.25;0.45;;;12.90;99.90;;;;;;7351851;32;20099;-56
2023/10/29 04:42:46;;;;;;;0.95;0.40;;;12.90;99.90;;;;;;7349169;32;20476;-56
2023/10/29 04:46:47;;;;;;;1.98;0.50;;;12.90;99.90;;;;;;7337322;32;20175;-56
2023/10/29 04:50:49;;;;;;;1.65;0.57;;;12.80;99.90;;;;;;7347688;32;20157;-56
2023/10/29 04:54:51;;;;;;;4.45;0.55;;;12.90;99.90;;;;;;7350914;32;20139;-56
2023/10/29 04:58:53;;;;;;;1.35;0.60;;;12.90;99.90;;;;;;7352317;32;20222;-55
2023/10/29 05:02:54;;;;;;;2.47;0.88;;;13.00;99.90;;;;;;7337972;32;20289;-56
2023/10/29 05:06:57;;;;;;;2.08;0.50;;;12.90;99.90;;;;;;7347012;32;20127;-56
2023/10/29 05:10:59;;;;;;;1.45;0.60;;;12.90;99.90;;;;;;7341065;32;20639;-56
2023/10/29 05:15:01;;;;;;;1.65;0.62;;;12.90;99.90;;;;;;7354004;32;20202;-56
2023/10/29 05:19:03;;;;;;;3.25;0.50;;;12.90;99.90;;;;;;7350635;32;20934;-56
2023/10/29 05:23:05;;;;;;;1.80;0.50;;;12.90;99.90;;;;;;7347492;32;20223;-57
2023/10/29 05:27:07;;;;;;;6.03;0.70;;;12.90;99.90;;;;;;7347857;32;20503;-55
2023/10/29 05:31:08;;;;;;;4.22;0.60;;;12.90;99.90;;;;;;7352290;32;20111;-55
2023/10/29 05:35:10;;;;;;;2.95;0.73;;;12.90;99.90;;;;;;7343829;32;20206;-56
2023/10/29 05:39:14;;;;;;;2.40;0.50;;;12.80;99.90;;;;;;7345896;32;20214;-56
2023/10/29 05:43:16;;;;;;;1.62;0.57;;;12.90;99.90;;;;;;7347805;32;20115;-56
2023/10/29 05:47:18;;;;;;;2.60;0.60;;;12.90;99.90;;;;;;7349002;32;20167;-56
2023/10/29 05:51:20;;;;;;;1.95;0.50;;;13.00;99.90;;;;;;7343501;32;20484;-56
2023/10/29 05:55:22;;;;;;;5.43;0.50;;;13.00;99.90;;;;;;7343909;32;20131;-56
2023/10/29 05:59:25;;;;;;;1.87;0.50;;;13.00;99.90;;;;;;7343241;32;20766;-56
2023/10/29 06:03:27;;;;;;;1.77;0.60;;;13.10;99.90;;;;;;7340322;32;20138;-56
2023/10/29 06:07:29;;;;;;;2.78;0.60;;;13.10;99.90;;;;;;7339708;32;20106;-56
2023/10/29 06:11:31;;;;;;;1.98;0.40;;;13.20;99.90;;;;;;7340223;32;20651;-56
2023/10/29 06:15:33;;;;;;;2.12;0.50;;;13.20;99.90;;;;;;7335713;32;20214;-56
2023/10/29 06:19:35;;;;;;;3.33;0.40;;;13.30;99.90;;;;;;7342241;32;20118;-56
2023/10/29 06:23:36;;;;;;;3.53;0.45;;;13.30;99.90;;;;;;7346999;32;20119;-56
2023/10/29 06:27:39;;;;;;;1.67;0.50;;;13.30;99.90;;;;;;7344053;32;20499;-56
2023/10/29 06:31:41;;;;;;;1.42;0.55;;;13.30;99.90;;;;;;7342166;32;20983;-56
2023/10/29 06:35:43;;;;;;;2.70;0.70;;;13.30;99.90;;;;;;7331937;32;20107;-55
2023/10/29 06:39:44;;;;;;;4.60;0.60;;;13.30;99.90;;;;;;7340391;32;20210;-55
2023/10/29 06:43:47;;;;;;;2.08;0.50;;;13.30;99.90;;;;;;7343367;32;20118;-56
2023/10/29 06:47:49;;;;;;;4.70;0.70;;;13.30;99.90;;;;;;7342199;32;20235;-56
2023/10/29 06:51:51;;;;;;;5.53;0.50;;;13.40;99.90;;;;;;7344593;32;20290;-56
2023/10/29 06:55:53;;;;;;;2.80;0.45;;;13.30;99.90;;;;;;7337913;32;20287;-56
2023/10/29 06:59:56;;;;;;;3.55;0.82;;;13.30;99.90;;;;;;7341770;32;20128;-55
2023/10/29 07:03:58;;;;;;;2.15;0.75;;;13.40;99.90;;;;;;7340964;32;20142;-55
2023/10/29 07:08:00;;;;;;;4.10;0.47;;;13.30;99.90;;;;;;7339304;32;20225;-55
2023/10/29 07:12:03;;;;;;;3.22;0.60;;;13.30;99.90;;;;;;7350784;32;20531;-56
2023/10/29 07:16:05;;;;;;;2.80;0.62;;;13.30;99.90;;;;;;7340309;32;20378;-55
2023/10/29 07:20:08;;;;;;;3.28;0.70;;;13.30;99.90;;;;;;7350917;32;20166;-56
2023/10/29 07:24:10;;;;;;;3.62;0.70;;;13.20;99.90;;;;;;7332616;32;20214;-55
2023/10/29 07:28:12;;;;;;;4.37;0.50;;;13.10;99.90;;;;;;7347812;32;20547;-56
2023/10/29 07:32:14;;;;;;;6.03;0.68;;;13.10;99.90;;;;;;7346321;32;20174;-56
2023/10/29 07:36:17;;;;;;;0.93;0.30;;;13.10;99.90;;;;;;7350067;32;20581;-57
2023/10/29 07:40:19;;;;;;;2.33;0.68;;;13.00;99.90;;;;;;7341695;32;20111;-56
2023/10/29 07:44:24;;;;;;;4.28;0.60;;;12.80;99.90;;;;;;7337558;32;20146;-57
2023/10/29 07:48:26;;;;;;;2.60;0.60;;;12.80;99.90;;;;;;7339919;32;20107;-56
2023/10/29 07:52:28;;;;;;;5.43;0.80;;;12.80;99.90;;;;;;7344055;32;20131;-57
2023/10/29 07:56:30;;;;;;;5.18;0.62;;;12.80;99.90;;;;;;7343013;32;20270;-56
2023/10/29 08:00:31;;;;;;;3.80;0.70;;;12.70;99.90;;;;;;7345391;32;20204;-57
2023/10/29 08:04:33;;;;;;;4.03;0.93;;;12.70;99.90;;;;;;7344665;32;20762;-57
2023/10/29 08:08:35;;;;;;;4.65;0.80;;;12.80;99.90;;;;;;7343379;32;20198;-56
2023/10/29 08:12:37;;;;;;;3.33;0.60;;;12.90;99.90;;;;;;7343935;32;20134;-55
2023/10/29 08:16:41;;;;;;;3.05;0.60;;;13.10;99.90;;;;;;7341093;32;20110;-57
2023/10/29 08:20:43;;;;;;;3.05;0.60;;;13.10;99.90;;;;;;7343013;32;20115;-57
2023/10/29 08:24:45;;;;;;;4.30;0.88;;;13.10;99.90;;;;;;7341006;32;20234;-57
2023/10/29 08:28:47;;;;;;;2.87;0.70;;;13.10;99.90;;;;;;7344602;32;20736;-56
2023/10/29 08:32:48;;;;;;;7.00;0.95;;;13.10;99.90;;;;;;7346948;32;20228;-56
2023/10/29 08:36:50;;;;;;;3.58;0.90;;;13.10;99.90;;;;;;7345306;32;20303;-57
2023/10/29 08:40:52;;;;;;;4.68;0.68;;;13.20;99.90;;;;;;7341156;32;20119;-58
2023/10/29 08:44:57;;;;;;;2.45;0.57;;;13.30;99.90;;;;;;7341306;32;20214;-55
2023/10/29 08:48:59;;;;;;;3.37;0.60;;;13.50;99.90;;;;;;7342535;32;20111;-55
2023/10/29 08:53:01;;;;;;;6.50;1.00;;;13.70;99.90;;;;;;7341316;32;20159;-56
2023/10/29 08:57:03;;;;;;;3.10;0.40;;;13.70;99.90;;;;;;7341239;32;20473;-57
2023/10/29 09:01:07;;;;;;;1.33;0.50;;;13.80;99.90;;;;;;7342032;32;20137;-57
2023/10/29 09:05:10;;;;;;;2.33;0.60;;;13.90;99.90;;;;;;7349121;32;20126;-57
2023/10/29 09:09:12;;;;;;;4.18;0.65;;;13.90;99.90;;;;;;7341693;32;20103;-56
2023/10/29 09:13:18;;;;;;;3.70;0.57;;;13.90;99.90;;;;;;7339409;32;20130;-57
2023/10/29 09:17:20;;;;;;;2.40;0.60;;;14.00;99.90;;;;;;7345121;32;20130;-57
2023/10/29 09:21:22;;;;;;;2.65;0.88;;;13.90;99.90;;;;;;7344188;32;20215;-57
2023/10/29 09:25:24;;;;;;;1.67;0.60;;;14.00;99.90;;;;;;7343715;32;20349;-56
2023/10/29 09:29:26;;;;;;;5.35;0.52;;;14.00;99.90;;;;;;7340902;32;20292;-58
2023/10/29 09:34:12;;;;;;;4.00;1.10;;;14.00;99.90;;;;;;7340524;32;20253;-57
2023/10/29 09:38:14;;;;;;;2.90;0.60;;;14.10;99.90;;;;;;7346959;32;20107;-58
2023/10/29 09:42:20;;;;;;;2.33;0.68;;;14.10;99.90;;;;;;7345802;32;20323;-57
2023/10/29 09:47:15;;;;;;;1.92;0.70;;;14.10;99.90;;;;;;7342602;32;20135;-57
2023/10/29 09:51:20;;;;;;;2.50;0.50;;;14.10;99.90;;;;;;7341993;32;20111;-58
2023/10/29 09:55:22;;;;;;;3.45;0.50;;;14.20;99.90;;;;;;7339014;32;20571;-57
2023/10/29 09:59:24;;;;;;;2.40;0.60;;;14.20;99.90;;;;;;7344320;32;20104;-57
2023/10/29 10:03:26;;;;;;;3.87;0.60;;;14.30;99.90;;;;;;7347540;32;20194;-58
2023/10/29 10:07:29;;;;;;;3.17;0.57;;;14.60;99.90;;;;;;7342393;32;20172;-58
2023/10/29 10:11:31;;;;;;;1.08;0.50;;;14.80;99.90;;;;;;7350846;32;20134;-57
2023/10/29 10:15:33;;;;;;;6.20;0.70;;;14.80;99.90;;;;;;7348752;32;20103;-58
2023/10/29 10:19:36;;;;;;;2.72;0.70;;;15.00;99.90;;;;;;7343041;32;20201;-57
2023/10/29 10:23:51;;;;;;;2.30;0.45;;;15.20;99.90;;;;;;7341750;32;20134;-58
2023/10/29 10:27:55;;;;;;;1.35;0.40;;;15.20;99.90;;;;;;7343570;32;20569;-57
2023/10/29 10:32:04;;;;;;;2.50;0.40;;;15.30;99.90;;;;;;7344120;32;20294;-58
2023/10/29 10:36:06;;;;;;;4.22;0.60;;;15.10;99.90;;;;;;7348791;32;20136;-57
2023/10/29 10:40:28;;;;;;;4.10;0.60;;;15.00;99.90;;;;;;7351913;32;20155;-57
2023/10/29 10:44:30;;;;;;;4.68;0.68;;;14.90;99.90;;;;;;7352192;32;20156;-57
2023/10/29 10:48:34;;;;;;;3.60;0.60;;;15.10;99.90;;;;;;7351105;32;20165;-58
2023/10/29 10:52:36;;;;;;;5.32;0.70;;;15.40;99.90;;;;;;7352323;32;20107;-58
2023/10/29 10:56:38;;;;;;;2.00;0.73;;;15.70;99.90;;;;;;7352868;32;20599;-57
2023/10/29 11:00:40;;;;;;;3.58;0.50;;;15.90;99.90;;;;;;7353361;32;20596;-57
2023/10/29 11:04:44;;;;;;;2.97;0.68;;;16.00;99.90;;;;;;7353772;32;20119;-57
2023/10/29 11:08:46;;;;;;;4.37;0.70;;;16.20;99.90;;;;;;7356396;32;20307;-57
2023/10/29 11:12:48;;;;;;;3.30;0.73;;;16.20;99.90;;;;;;7352935;32;20130;-57
2023/10/29 11:16:53;;;;;;;3.65;0.80;;;16.20;99.90;;;;;;7349122;32;20121;-57
2023/10/29 11:20:56;;;;;;;2.37;0.50;;;16.10;99.90;;;;;;7346814;32;20489;-57
2023/10/29 11:25:08;;;;;;;4.45;0.68;;;16.40;99.90;;;;;;7356395;32;20158;-58
2023/10/29 11:29:42;;;;;;;4.20;0.60;;;16.40;99.90;;;;;;7348173;32;20096;-58
2023/10/29 11:33:45;;;;;;;4.12;0.68;;;16.30;99.90;;;;;;7347510;32;20107;-56
2023/10/29 11:37:49;;;;;;;4.05;1.00;;;16.30;99.90;;;;;;7356275;32;20200;-56
2023/10/29 11:41:52;;;;;;;2.50;0.77;;;16.10;99.90;;;;;;7344525;32;20160;-57
2023/10/29 11:45:56;;;;;;;2.10;0.60;;;16.00;99.90;;;;;;7356766;32;20576;-57
2023/10/29 11:50:10;;;;;;;4.60;0.55;;;15.90;99.90;;;;;;7354513;32;20178;-57
2023/10/29 11:54:12;;;;;;;4.07;0.57;;;15.50;99.90;;;;;;7352761;32;20111;-56
2023/10/29 11:58:19;;;;;;;1.83;0.55;;;15.30;99.90;;;;;;7348995;32;20208;-57
2023/10/29 12:02:22;;;;;;;5.68;0.60;;;15.20;99.90;;;;;;7354905;32;20134;-56
2023/10/29 12:06:44;;;;;;;2.47;0.60;;;15.20;99.90;;;;;;7347841;32;20107;-57
2023/10/29 12:10:48;;;;;;;2.70;0.50;;;14.90;99.90;;;;;;7341348;32;20112;-57
2023/10/29 12:14:50;;;;;;;3.80;0.62;;;14.50;99.90;;;;;;7339900;32;20187;-56
2023/10/29 12:18:52;;;;;;;3.30;0.80;;;14.10;99.90;;;;;;7346482;32;20129;-56
2023/10/29 12:22:57;;;;;;;3.50;0.60;;;13.80;99.90;;;;;;7347157;32;20198;-57
2023/10/29 12:27:00;;;;;;;5.18;0.80;;;13.50;99.90;;;;;;7347558;32;20186;-58
2023/10/29 12:31:03;;;;;;;5.03;0.82;;;13.20;99.90;;;;;;7345874;32;20172;-56
2023/10/29 12:35:09;;;;;;;1.65;0.70;;;13.00;99.90;;;;;;7364396;32;20572;-57
2023/10/29 12:39:13;;;;;;;2.78;0.88;;;12.90;99.90;;;;;;7345804;32;20099;-57
2023/10/29 12:43:15;;;;;;;2.78;0.60;;;13.00;99.90;;;;;;7359150;32;20229;-57
2023/10/29 12:47:17;;;;;;;4.80;0.68;;;12.90;99.90;;;;;;7344983;32;20255;-55
2023/10/29 12:51:23;;;;;;;2.17;0.60;;;12.90;99.90;;;;;;7343323;32;20566;-57
2023/10/29 12:55:25;;;;;;;4.93;0.90;;;13.00;99.90;;;;;;7344794;32;20197;-57
2023/10/29 12:59:31;;;;;;;3.65;0.70;;;13.00;99.90;;;;;;7352631;32;20198;-57
2023/10/29 13:03:33;;;;;;;1.98;0.50;;;13.10;99.90;;;;;;7351334;32;20102;-57
2023/10/29 13:07:37;;;;;;;3.72;0.62;;;13.00;99.90;;;;;;7345559;32;20189;-57
2023/10/29 13:11:39;;;;;;;2.22;0.60;;;13.10;99.90;;;;;;7348826;32;20551;-57
2023/10/29 13:15:42;;;;;;;4.47;0.70;;;13.10;99.90;;;;;;7352814;32;20167;-57
2023/10/29 13:19:43;;;;;;;2.33;0.70;;;13.30;99.90;;;;;;7348749;32;20148;-57
2023/10/29 13:23:45;;;;;;;1.25;0.50;;;13.60;99.90;;;;;;7347733;32;20313;-56
2023/10/29 13:27:47;;;;;;;2.33;0.50;;;13.80;99.90;;;;;;7354701;32;20178;-57
2023/10/29 13:31:49;;;;;;;4.90;0.73;;;13.90;99.90;;;;;;7347411;32;20260;-57
2023/10/29 13:35:51;;;;;;;3.28;0.50;;;14.00;99.90;;;;;;7346302;32;20142;-57
2023/10/29 13:39:55;;;;;;;2.80;0.80;;;14.00;99.90;;;;;;7345263;32;20724;-57
2023/10/29 13:43:57;;;;;;;2.17;0.70;;;14.10;99.90;;;;;;7344489;32;20131;-54
2023/10/29 13:47:59;;;;;;;1.90;0.50;;;14.20;99.90;;;;;;7343220;32;20155;-55
2023/10/29 13:52:01;;;;;;;1.80;0.70;;;14.30;99.90;;;;;;7341762;32;20103;-56
2023/10/29 13:56:10;;;;;;;1.85;0.55;;;14.30;99.90;;;;;;7349631;32;20106;-55
2023/10/29 14:00:12;;;;;;;2.92;0.65;;;14.30;99.90;;;;;;7342476;32;20179;-56
2023/10/29 14:04:14;;;;;;;3.72;0.68;;;14.40;99.90;;;;;;7354477;32;20559;-54
2023/10/29 14:08:16;;;;;;;2.58;0.40;;;14.50;99.90;;;;;;7352437;32;20212;-55
2023/10/29 14:12:22;;;;;;;2.35;0.62;;;14.50;99.90;;;;;;7357689;32;20127;-56
2023/10/29 14:16:38;;;;;;;1.35;0.47;;;14.30;99.90;;;;;;7347022;32;20148;-57
2023/10/29 14:20:40;;;;;;;4.15;0.60;;;14.20;99.90;;;;;;7349118;32;20324;-57
2023/10/29 14:24:42;;;;;;;2.35;0.50;;;14.10;99.90;;;;;;7356839;32;20152;-57
2023/10/29 14:28:43;;;;;;;2.37;0.47;;;14.10;99.90;;;;;;7357874;32;20152;-57
2023/10/29 14:32:45;;;;;;;1.10;0.47;;;14.20;99.90;;;;;;7356907;32;20108;-57
2023/10/29 14:36:47;;;;;;;1.85;0.25;;;14.30;99.90;;;;;;7357854;32;20134;-57
2023/10/29 14:40:51;;;;;;;3.62;0.40;;;14.20;99.90;;;;;;7353815;32;20099;-57
2023/10/29 14:44:53;;;;;;;1.70;0.40;;;14.30;99.90;;;;;;7353375;32;20104;-55
2023/10/29 14:48:55;;;;;;;2.20;0.43;;;14.30;99.90;;;;;;7331733;32;20251;-56
2023/10/29 14:52:57;;;;;;;0.98;0.40;;;14.30;99.90;;;;;;7354022;32;20451;-56
2023/10/29 14:56:59;;;;;;;0.88;0.30;;;14.30;99.90;;;;;;7357345;32;20766;-57
2023/10/29 15:01:14;;;;;;;1.40;0.32;;;14.30;99.90;;;;;;7348405;32;20146;-57
2023/10/29 15:05:16;;;;;;;1.92;0.40;;;14.20;99.90;;;;;;7351686;32;20427;-57
2023/10/29 15:09:19;;;;;;;1.25;0.30;;;14.20;99.90;;;;;;7348780;32;20111;-57
2023/10/29 15:13:22;;;;;;;0.62;0.30;;;14.20;99.90;;;;;;7354755;32;20146;-57
2023/10/29 15:17:24;;;;;;;1.30;0.30;;;14.30;99.90;;;;;;7354679;32;20111;-57
2023/10/29 15:21:26;;;;;;;1.58;0.30;;;14.30;99.90;;;;;;7349503;32;20594;-57
2023/10/29 15:25:30;;;;;;;1.12;0.32;;;14.40;99.90;;;;;;7348897;32;20215;-57
2023/10/29 15:29:32;;;;;;;2.37;0.62;;;14.50;99.90;;;;;;7353751;32;20213;-57
2023/10/29 15:33:34;;;;;;;1.73;0.60;;;14.40;99.90;;;;;;7350310;32;20146;-57
2023/10/29 15:37:38;;;;;;;2.50;0.40;;;14.30;99.90;;;;;;7343720;32;20133;-57
2023/10/29 15:41:42;;;;;;;1.48;0.30;;;14.30;99.90;;;;;;7347967;32;20481;-57
2023/10/29 15:45:43;;;;;;;1.50;0.40;;;14.20;99.90;;;;;;7346489;32;20107;-57
2023/10/29 15:49:45;;;;;;;1.30;0.30;;;14.10;99.90;;;;;;7350637;32;20175;-57
2023/10/29 15:53:48;;;;;;;0.85;0.20;;;14.10;99.90;;;;;;7355277;32;20579;-57
2023/10/29 15:57:49;;;;;;;0.88;0.47;;;14.10;99.90;;;;;;7350287;32;20261;-57
2023/10/29 16:01:52;;;;;;;2.30;1.08;;;14.20;99.90;;;;;;7355784;32;20146;-57
2023/10/29 16:05:54;;;;;;;2.70;0.40;;;14.10;99.90;;;;;;7348169;32;20148;-57
2023/10/29 16:09:55;;;;;;;2.58;0.40;;;14.00;99.90;;;;;;7351120;32;20129;-57
2023/10/29 16:13:58;;;;;;;0.68;0.32;;;13.90;99.90;;;;;;7353787;32;20158;-57
2023/10/29 16:17:59;;;;;;;4.82;0.90;;;13.80;99.90;;;;;;7354237;32;20163;-56
2023/10/29 16:22:02;;;;;;;0.90;0.50;;;13.80;99.90;;;;;;7340055;32;20133;-55
2023/10/29 16:26:04;;;;;;;0.80;0.22;;;13.60;99.90;;;;;;7342045;32;20120;-57
2023/10/29 16:30:07;;;;;;;2.55;0.60;;;13.70;99.90;;;;;;7347472;32;20125;-54
2023/10/29 16:34:09;;;;;;;2.08;0.50;;;13.60;99.90;;;;;;7349756;32;20572;-57
2023/10/29 16:38:11;;;;;;;1.62;0.40;;;13.50;99.90;;;;;;7357489;32;20437;-56
2023/10/29 16:42:13;;;;;;;1.42;0.50;;;13.40;99.90;;;;;;7352529;32;20111;-56
2023/10/29 16:46:17;;;;;;;2.42;0.55;;;13.40;99.90;;;;;;7350745;32;20141;-56
2023/10/29 16:50:18;;;;;;;1.37;0.52;;;13.30;99.90;;;;;;7346503;32;20112;-56
2023/10/29 16:54:20;;;;;;;2.25;0.37;;;13.30;99.90;;;;;;7342067;32;20116;-55
2023/10/29 16:58:22;;;;;;;1.75;0.55;;;13.20;99.90;;;;;;7354993;32;20139;-56
2023/10/29 17:02:24;;;;;;;1.92;0.40;;;13.20;99.90;;;;;;7351921;32;20126;-55
2023/10/29 17:06:26;;;;;;;1.33;0.60;;;13.10;99.90;;;;;;7344847;32;20129;-56
2023/10/29 17:10:28;;;;;;;1.42;0.57;;;13.10;99.90;;;;;;7347137;32;20270;-55
2023/10/29 17:14:30;;;;;;;1.00;0.40;;;13.00;99.90;;;;;;7346803;32;20124;-55
2023/10/29 17:18:32;;;;;;;3.62;0.75;;;12.90;99.90;;;;;;7349921;32;20115;-56
2023/10/29 17:22:34;;;;;;;2.42;0.50;;;12.90;99.90;;;;;;7342819;32;20239;-55
2023/10/29 17:26:36;;;;;;;2.25;0.40;;;12.90;99.90;;;;;;7342889;32;20131;-56
2023/10/29 17:30:37;;;;;;;1.67;0.50;;;12.70;99.90;;;;;;7339707;32;20203;-57
2023/10/29 17:34:40;;;;;;;5.72;0.57;;;12.60;99.90;;;;;;7344621;32;20108;-56
2023/10/29 17:38:44;;;;;;;2.17;0.50;;;12.60;99.90;;;;;;7348764;32;20161;-57
2023/10/29 17:42:45;;;;;;;1.60;0.50;;;12.70;99.90;;;;;;7346913;32;20523;-56
2023/10/29 17:46:47;;;;;;;1.17;0.40;;;12.70;99.90;;;;;;7346343;32;20249;-56
2023/10/29 17:50:56;;;;;;;2.78;0.77;;;12.60;99.90;;;;;;7348250;32;20504;-57
2023/10/29 17:54:58;;;;;;;3.40;0.98;;;12.60;99.90;;;;;;7348353;32;20172;-56
2023/10/29 17:59:02;;;;;;;2.35;0.57;;;12.60;99.90;;;;;;7342740;32;20103;-56
2023/10/29 18:03:05;;;;;;;1.27;0.40;;;12.50;99.90;;;;;;7349900;32;20575;-56
2023/10/29 18:07:07;;;;;;;3.33;0.90;;;12.70;99.90;;;;;;7347435;32;20778;-56
2023/10/29 18:11:11;;;;;;;4.45;0.60;;;12.70;99.90;;;;;;7346383;32;20182;-56
2023/10/29 18:15:13;;;;;;;1.98;1.10;;;12.70;99.90;;;;;;7340931;32;20164;-56
2023/10/29 18:19:15;;;;;;;4.12;0.70;;;12.70;99.90;;;;;;7342252;32;20123;-56
2023/10/29 18:23:17;;;;;;;3.62;0.40;;;12.60;99.90;;;;;;7343847;32;20130;-56
2023/10/29 18:27:19;;;;;;;3.25;0.50;;;12.60;99.90;;;;;;7337128;32;20198;-56
2023/10/29 18:31:21;;;;;;;4.87;0.70;;;12.60;99.90;;;;;;7347575;32;20570;-56
2023/10/29 18:35:23;;;;;;;4.60;0.70;;;12.70;99.90;;;;;;7355368;32;20142;-56
2023/10/29 18:39:25;;;;;;;2.60;0.43;;;12.70;99.90;;;;;;7341248;32;20116;-56
2023/10/29 18:43:26;;;;;;;1.80;0.60;;;12.70;99.90;;;;;;7336019;32;20107;-56
2023/10/29 18:47:28;;;;;;;4.10;0.47;;;12.80;99.90;;;;;;7345322;32;20684;-56
2023/10/29 18:51:30;;;;;;;1.83;0.70;;;12.70;99.90;;;;;;7334168;32;20141;-56
2023/10/29 18:55:34;;;;;;;2.47;0.77;;;12.90;99.90;;;;;;7344190;32;20515;-56
2023/10/29 18:59:36;;;;;;;3.55;0.55;;;12.90;99.90;;;;;;7346127;32;20394;-56
2023/10/29 19:03:39;;;;;;;4.50;0.60;;;12.90;99.90;;;;;;7348864;32;20195;-56
2023/10/29 19:07:42;;;;;;;3.90;0.80;;;13.00;99.90;;;;;;7342319;32;20524;-57
2023/10/29 19:11:43;;;;;;;6.15;0.80;;;13.00;99.90;;;;;;7354418;32;20145;-56
2023/10/29 19:15:45;;;;;;;2.05;0.50;;;13.10;99.90;;;;;;7343298;32;20130;-56
2023/10/29 19:19:47;;;;;;;5.75;0.70;;;13.20;99.90;;;;;;7349793;32;20110;-56
2023/10/29 19:23:50;;;;;;;3.60;0.82;;;13.20;99.90;;;;;;7353478;32;20521;-56
2023/10/29 19:27:52;;;;;;;2.45;0.50;;;13.20;99.90;;;;;;7349955;32;20176;-56
2023/10/29 19:31:54;;;;;;;4.10;0.55;;;13.10;99.90;;;;;;7352318;32;20111;-56
2023/10/29 19:35:56;;;;;;;4.03;0.77;;;13.20;99.90;;;;;;7349180;32;20128;-56
2023/10/29 19:39:58;;;;;;;5.45;0.90;;;13.10;99.90;;;;;;7353179;32;20103;-56
2023/10/29 19:44:01;;;;;;;3.87;0.70;;;13.20;99.90;;;;;;7352630;32;20581;-56
2023/10/29 19:48:03;;;;;;;4.03;1.00;;;13.10;99.90;;;;;;7345400;32;20284;-56
2023/10/29 19:52:08;;;;;;;4.40;0.57;;;13.10;99.90;;;;;;7354678;32;20111;-56
2023/10/29 19:56:13;;;;;;;3.90;1.02;;;13.00;99.90;;;;;;7353926;32;20445;-56
2023/10/29 20:00:19;;;;;;;6.07;1.10;;;13.00;99.90;;;;;;7352248;32;20115;-56
2023/10/29 20:04:22;;;;;;;5.28;0.80;;;12.90;99.90;;;;;;7348408;32;20163;-57
2023/10/29 20:08:24;;;;;;;8.00;1.52;;;13.00;99.90;;;;;;7346500;32;20238;-56
2023/10/29 20:12:26;;;;;;;4.47;0.80;;;12.90;99.90;;;;;;7349272;32;20454;-56
2023/10/29 20:16:28;;;;;;;8.52;0.80;;;12.90;99.90;;;;;;7358363;32;20191;-57
2023/10/29 20:20:31;;;;;;;6.57;1.00;;;12.80;99.90;;;;;;7348001;32;20163;-57
2023/10/29 20:24:33;;;;;;;4.70;0.93;;;12.70;99.90;;;;;;7340646;32;20107;-56
2023/10/29 20:28:34;;;;;;;4.85;0.70;;;12.60;99.90;;;;;;7346755;32;20134;-57
2023/10/29 20:32:36;;;;;;;4.20;0.75;;;12.70;99.90;;;;;;7358413;32;20126;-57
2023/10/29 20:36:38;;;;;;;4.62;1.02;;;12.60;99.90;;;;;;7355207;32;20158;-57
2023/10/29 20:40:40;;;;;;;3.72;0.77;;;12.60;99.90;;;;;;7349080;32;20132;-57
2023/10/29 20:44:42;;;;;;;4.78;1.08;;;12.50;99.90;;;;;;7348244;32;20112;-57
2023/10/29 20:48:46;;;;;;;5.50;0.85;;;12.40;99.90;;;;;;7356929;32;20596;-57
2023/10/29 20:52:48;;;;;;;6.47;0.93;;;12.40;99.90;;;;;;7341197;32;20426;-57
2023/10/29 20:56:50;;;;;;;5.80;0.93;;;12.40;99.90;;;;;;7350363;32;20160;-56
2023/10/29 21:00:52;;;;;;;4.40;1.05;;;12.40;99.90;;;;;;7349480;32;20531;-57
2023/10/29 21:04:54;;;;;;;4.57;1.10;;;12.30;99.90;;;;;;7349188;32;20446;-57